Reno, NV (89509)

5:26 AM PDT on October 01, 2014 (GMT -0700)
Cashill / Caughlin Ranch | Change Station
CLOSE
Current Station
Personal Weather Station
Location: Reno, NV
Elevation: 5040 ft
Nearby Weather Stations

Elev 5040 ft 39.49 °N, 119.85 °W | Updated 42 seconds ago

Clear
Clear
41.2 °F
Feels Like 41 °F
N
1.0
Wind Variable Wind from South
Gusts 5.0 mph

Today
High -- | Low -- °F
--% Chance of Precip.
Yesterday
High -- | Low -- °F
Precip. -- in
6:55 AM 6:41 PM
Waxing Crescent, 47% visible
Pressure 30.04 in
Visibility 10.0 miles
Clouds Clear
Windchill 41 °F
Dew Point 30 °F
Humidity 65%
Rainfall 0.00 in
Snow Depth 1 in , 0 in , 2 in
UV 0 out of 12
Pollen 5.00 out of 12
Air Quality Not available.
Flu Activity Not available.
METAR KRNO 011055Z 00000KT 10SM CLR 07/01 A3012 RMK AO2 SLP170 T00720011 $

More Conditions Fewer Conditions

Pressure 30.04 in
Visibility 10.0 miles
Clouds Clear
Windchill 41 °F
Dew Point 30 °F
Humidity 65%
Rainfall 0.00 in
Snow Depth 1 in , 0 in , 2 in
UV 0 out of 12
Pollen 5.00 out of 12
Air Quality Not available.
Flu Activity Not available.
METAR KRNO 011055Z 00000KT 10SM CLR 07/01 A3012 RMK AO2 SLP170 T00720011 $

More Conditions Fewer Conditions

10-Day Weather Forecast

Almanac

Astronomy

Oct. 01, 2014 Rise Set
Actual Time 6:55 AM PDT 6:41 PM PDT
Civil Twilight 6:29 AM PDT 7:08 PM PDT
Nautical Twilight 5:57 AM PDT 7:39 PM PDT
Astronomical Twilight 5:26 AM PDT 8:11 PM PDT
Moon 1:59 PM PDT No Moon Set
Length of Visible Light 12h 39m
Length of Day
11h 46m
Tomorrow will be 2m 34s shorter.
Waxing Crescent, 47% of the Moon is Illuminated
Today
Waxing Crescent
Oct 1
First Quarter
Oct 8
Full
Oct 15
Last Quarter
Oct 23
New

Today's Extremes

State Highs State Lows

Community

WunderPhotos

Upload Photos

1,757,916 photos uploaded!

Nearby

Snow Depth

Station Depth Elevation
Lewis Peak 1 in 7400 ft
Ward Mountain 0 in 9200 ft
Mt. Rose Ski Area 2 in 8850 ft
Green Mountain 1 in 8000 ft
Taylor Canyon 2 in 6200 ft

Earthquake Activity

City Distance Mag. Time & Date
No recent earthquake activity has been reported nearby.
Minimum magnitude displayed is 2.5.

Coastal Water Temperatures

Place Temperature
No Stations Reporting

Nearby Weather Stations